METAR stanice u blizini

 

LYBE - Beograd / Surčin, Srbija
Ažurirano: 22/08/2019 21:30
Vedro
Vedro
 Pravac vetra calm
Vetar: Tišina
Temperatura: 25°C
Tačka rose: 18°C
Vlažnost: 65%
Pritisak: 1021 hPa
Pregled: Vedro
Vidljivost: greater than 10 km
2019/08/22 19:30 LYBE 221930Z 00000KT CAVOK 25/18 Q1021 NOSIG
LYBT - Beograd / Batajnica, Srbija
Ažurirano: 22/08/2019 21:30
Vedro
Vedro
 Pravac vetra calm
Vetar: Tišina
Temperatura: 22°C
Tačka rose: 19°C
Vlažnost: 83%
Pritisak: 1021 hPa
Pregled: Vedro
Vidljivost: greater than 10 km
2019/08/22 19:30 LYBT 221930Z 00000KT CAVOK 22/19 Q1021 NOSIG
LYVR - Vršac, Srbija
Ažurirano: 22/08/2019 21:30
Vedro
Vedro
 Pravac vetra varies
Vetar: varies 4 km/h
Temperatura: 23°C
Tačka rose: 19°C
Vlažnost: 78%
Pritisak: 1021 hPa
Pregled: Vedro
Vidljivost: greater than 10 km
2019/08/22 19:30 LYVR 221930Z VRB02KT CAVOK 23/19 Q1021 NOSIG
 
LYKV - Lađevci, Srbija
Ažurirano: 22/08/2019 21:30
Vedro
Vedro
 Pravac vetra SZ
Vetar: SZ 6 km/h
Temperatura: 24°C
Tačka rose: 17°C
Vlažnost: 65%
Pritisak: 1022 hPa
Pregled: Vedro
Vidljivost: greater than 10 km
2019/08/22 19:30 LYKV 221930Z 31003KT 280V350 CAVOK 24/17 Q1022 NOSIG
LYNI - Niš, Srbija
Ažurirano: 22/08/2019 21:30
Vedro
Vedro
 Pravac vetra S
Vetar: S 17 km/h
Temperatura: 27°C
Heat Index: 28°C
Tačka rose: 16°C
Vlažnost: 51%
Pritisak: 1020 hPa
Pregled: Vedro
Vidljivost: greater than 10 km
2019/08/22 19:30 LYNI 221930Z 01009KT 320V060 CAVOK 27/16 Q1020 NOSIG
BKPR - Priština, Srbija
Ažurirano: 22/08/2019 21:30
Vedro
Vedro
 Pravac vetra S
Vetar: S 11 km/h
Temperatura: 24°C
Tačka rose: 13°C
Vlažnost: 50%
Pritisak: 1022 hPa
Pregled: Vedro
Vidljivost: greater than 10 km
2019/08/22 19:30 BKPR 221930Z 35006KT CAVOK 24/13 Q1022 NOSIG
 
LHPP - Pecs / Pogany, Hungary
Ažurirano: 22/08/2019 18:45
NOT Current
Vedro
Vedro
 Pravac vetra ISI
Vetar: ISI 13 km/h
Temperatura: 26°C
Tačka rose: 18°C
Vlažnost: 61%
Pritisak: 1022 hPa
Pregled: Vedro
Vidljivost: greater than 10 km
2019/08/22 16:45 LHPP 221645Z 06007KT CAVOK 26/18 Q1022
LHUD - Szeged, Hungary
Ažurirano: 04/07/2019 01:45
NOT Current
Vedro
Vedro
 Pravac vetra S
Vetar: S 7 km/h
Temperatura: 18°C
Tačka rose: 13°C
Vlažnost: 73%
Pritisak: 1019 hPa
Pregled: Vedro
Vidljivost: greater than 10 km
2019/07/03 23:45 LHUD 032345Z 35004KT CAVOK 18/13 Q1019
LRTR - Timisoara, Romania
Ažurirano: 22/08/2019 21:30
Vedro
Vedro
 Pravac vetra SSI
Vetar: SSI 6 km/h
Temperatura: 24°C
Tačka rose: 19°C
Vlažnost: 74%
Pritisak: 1021 hPa
Pregled: Vedro
Vidljivost: greater than 10 km
2019/08/22 19:30 LRTR 221930Z 03003KT 320V120 CAVOK 24/19 Q1021
 
LRCV - Craiova, Romania
Ažurirano: 22/08/2019 21:30
Partly Cloudy
Partly Cloudy
 Pravac vetra IJI
Vetar: IJI 9 km/h
Temperatura: 28°C
Tačka rose: 12°C
Vlažnost: 37%
Pritisak: 1021 hPa
Oblaci: Partly Cloudy
Vidljivost: 10 km
Cloud details: Partly Cloudy 2743 m
2019/08/22 19:30 LRCV 221930Z AUTO 12005KT 9999 SCT090/// 28/12 Q1021
LBSF - Sofia, Bulgaria
Ažurirano: 22/08/2019 21:30
Vedro
Vedro
 Pravac vetra JJI
Vetar: JJI 9 km/h
Temperatura: 25°C
Tačka rose: 12°C
Vlažnost: 44%
Pritisak: 1022 hPa
Pregled: Vedro
Vidljivost: greater than 10 km
2019/08/22 19:30 LBSF 221930Z 16005KT 130V250 CAVOK 25/12 Q1022 NOSIG
LWSK - Skoplje, Makedonija
Ažurirano: 22/08/2019 21:00
Vedro
Vedro
 Pravac vetra SSZ
Vetar: SSZ 9 km/h
Temperatura: 30°C
Tačka rose: 12°C
Vlažnost: 33%
Pritisak: 1019 hPa
Pregled: Vedro
Vidljivost: greater than 10 km
2019/08/22 19:00 LWSK 221900Z 33005KT 250V350 CAVOK 30/12 Q1019 NOSIG
 
LYPG - Podgorica, Crna Gora
Ažurirano: 22/08/2019 21:30
Vedro
Vedro
 Pravac vetra S
Vetar: S 7 km/h
Temperatura: 28°C
Heat Index: 28°C
Tačka rose: 14°C
Vlažnost: 42%
Pritisak: 1017 hPa
Pregled: Vedro
Vidljivost: greater than 10 km
2019/08/22 19:30 LYPG 221930Z 35004KT CAVOK 28/14 Q1017 NOSIG
LQSA - Sarajevo, Bosna i Hercegovina
Ažurirano: 22/08/2019 21:30
Vedro
Vedro
 Pravac vetra SZ
Vetar: SZ 13 km/h
Temperatura: 23°C
Tačka rose: 18°C
Vlažnost: 74%
Pritisak: 1023 hPa
Pregled: Vedro
Vidljivost: greater than 10 km
2019/08/22 19:30 LQSA 221930Z 31007KT CAVOK 23/18 Q1023 NOSIG
LDOS - Osijek, Hrvatksa
Ažurirano: 22/08/2019 21:30
Vedro
Vedro
 Pravac vetra SSZ
Vetar: SSZ 9 km/h
Temperatura: 23°C
Tačka rose: 19°C
Vlažnost: 78%
Pritisak: 1022 hPa
Pregled: Vedro
Vidljivost: greater than 10 km
2019/08/22 19:30 LDOS 221930Z 33005KT CAVOK 23/19 Q1022